Time;durP1;ratioP1;P1;durP2;ratioP2;P2;SDS_P1;SDS_P2;PMS_P1;PMS_P2;Temp;Humidity;BMP_temperature;BMP_pressure;BME280_temperature;BME280_humidity;BME280_pressure;Samples;Min_cycle;Max_cycle;Signal;HPM_P1;HPM_P2
2023/03/08 00:01:00;;;;;;;2.85;2.20;;;;;;;15.92;34.29;99974.91;5090378;28;20843;-74
2023/03/08 00:03:25;;;;;;;2.10;1.90;;;;;;;15.07;34.50;99826.38;5089437;28;20056;-74
2023/03/08 00:05:51;;;;;;;2.30;2.10;;;;;;;15.95;34.34;99977.25;5100903;28;20039;-74
2023/03/08 00:08:16;;;;;;;2.13;1.92;;;;;;;15.95;34.40;99982.59;5088430;28;20542;-75
2023/03/08 00:10:42;;;;;;;2.50;1.98;;;;;;;15.93;34.33;99981.13;5095445;28;20028;-75
2023/03/08 00:13:07;;;;;;;2.13;1.80;;;;;;;15.91;34.38;99967.03;5088392;28;20035;-74
2023/03/08 00:15:32;;;;;;;2.17;1.90;;;;;;;15.94;34.27;99977.44;5078349;28;20516;-74
2023/03/08 00:17:58;;;;;;;2.85;1.70;;;;;;;16.00;34.10;99980.25;5093834;28;20088;-74
2023/03/08 00:20:23;;;;;;;2.20;1.70;;;;;;;16.01;34.21;99989.13;5094698;28;20034;-75
2023/03/08 00:22:48;;;;;;;1.98;1.60;;;;;;;15.55;34.22;99905.81;5096704;28;20024;-74
2023/03/08 00:25:15;;;;;;;2.25;2.05;;;;;;;16.04;34.22;99974.53;5092832;28;20032;-73
2023/03/08 00:27:40;;;;;;;1.88;1.77;;;;;;;15.92;34.08;99956.13;5105731;28;20024;-74
2023/03/08 00:30:07;;;;;;;2.03;1.80;;;;;;;16.05;34.15;99976.22;5105437;28;20036;-75
2023/03/08 00:32:32;;;;;;;2.65;1.70;;;;;;;16.06;34.03;99972.53;5093434;28;20025;-74
2023/03/08 00:34:57;;;;;;;2.30;2.00;;;;;;;16.07;34.01;99971.53;5093318;28;20020;-74
2023/03/08 00:37:23;;;;;;;2.00;1.90;;;;;;;15.95;33.98;99949.59;5102014;28;20031;-74
2023/03/08 00:39:52;;;;;;;1.80;1.70;;;;;;;16.07;34.02;99971.53;5097958;28;20353;-74
2023/03/08 00:42:20;;;;;;;2.05;1.75;;;;;;;16.07;34.01;99969.69;5101850;28;20032;-74
2023/03/08 00:44:46;;;;;;;2.42;1.83;;;;;;;15.20;33.97;99827.50;5096811;28;20412;-73
2023/03/08 00:47:12;;;;;;;2.00;1.90;;;;;;;16.10;33.87;99974.69;5102904;28;20036;-73
2023/03/08 00:49:37;;;;;;;1.83;1.50;;;;;;;16.11;33.87;99973.69;5099859;28;20021;-75
2023/03/08 00:52:03;;;;;;;2.38;1.80;;;;;;;16.12;33.80;99971.84;5089413;28;20059;-73
2023/03/08 00:54:29;;;;;;;1.92;1.73;;;;;;;16.11;33.70;99967.50;5095678;28;20435;-74
2023/03/08 00:56:54;;;;;;;1.95;1.80;;;;;;;15.71;33.79;99905.75;5099016;28;20025;-74
2023/03/08 00:59:19;;;;;;;1.83;1.48;;;;;;;16.12;33.85;99967.31;5101607;28;20048;-74
2023/03/08 01:01:45;;;;;;;2.05;1.80;;;;;;;15.98;33.87;99943.91;5092355;28;20354;-73
2023/03/08 01:04:11;;;;;;;2.35;1.42;;;;;;;16.13;33.94;99976.19;5094936;28;20052;-75
2023/03/08 01:06:37;;;;;;;2.10;1.90;;;;;;;15.94;33.80;99935.38;5101718;28;20024;-75
2023/03/08 01:09:03;;;;;;;2.42;2.13;;;;;;;15.65;33.75;99895.75;5097113;28;20024;-75
2023/03/08 01:11:28;;;;;;;1.73;1.60;;;;;;;16.12;33.80;99969.97;5091837;28;20032;-75
2023/03/08 01:13:54;;;;;;;2.53;1.75;;;;;;;16.11;33.70;99967.50;5092869;28;20031;-74
2023/03/08 01:16:23;;;;;;;2.08;1.90;;;;;;;15.65;33.74;99887.72;5086766;28;20032;-75
2023/03/08 01:18:48;;;;;;;;;;;;;;;16.15;33.73;99956.25;5088584;28;20080;-74
2023/03/08 01:21:14;;;;;;;1.70;1.60;;;;;;;15.71;33.64;99889.69;5102422;28;19931;-74
2023/03/08 01:23:39;;;;;;;1.80;1.70;;;;;;;15.67;33.63;99885.72;5097762;28;20404;-75
2023/03/08 01:26:11;;;;;;;2.08;1.88;;;;;;;16.12;33.68;99951.22;5091967;28;20024;-74
2023/03/08 01:28:36;;;;;;;1.88;1.70;;;;;;;16.16;33.60;99955.22;5101521;28;20036;-75
2023/03/08 01:31:08;;;;;;;1.75;1.65;;;;;;;16.15;33.72;99947.38;5089641;28;20044;-74
2023/03/08 01:33:34;;;;;;;2.83;1.92;;;;;;;16.14;33.67;99943.84;5092544;28;20508;-74
2023/03/08 01:36:03;;;;;;;2.53;1.63;;;;;;;15.66;33.65;99865.25;5092310;28;20024;-74
2023/03/08 01:38:28;;;;;;;2.58;1.70;;;;;;;16.15;33.63;99940.16;5091766;28;20028;-75
2023/03/08 01:40:55;;;;;;;1.88;1.77;;;;;;;16.15;33.43;99936.63;5087731;28;20086;-74
2023/03/08 01:43:25;;;;;;;2.00;1.80;;;;;;;16.16;33.26;99936.44;5103663;28;20058;-76
2023/03/08 01:46:17;;;;;;;1.50;1.40;;;;;;;16.15;33.59;99926.75;5093173;28;20028;-74
2023/03/08 01:48:45;;;;;;;2.00;1.80;;;;;;;16.15;33.64;99932.09;5097267;28;20081;-73
2023/03/08 01:51:13;;;;;;;1.92;1.75;;;;;;;16.04;33.50;99904.81;5091094;28;20032;-75
2023/03/08 01:53:39;;;;;;;1.80;1.70;;;;;;;15.68;33.60;99852.53;5085609;28;20035;-75
2023/03/08 01:56:09;;;;;;;1.65;1.50;;;;;;;16.17;33.45;99922.03;5091780;28;20036;-75
2023/03/08 01:58:34;;;;;;;1.90;1.80;;;;;;;16.10;33.51;99915.72;5090004;28;20056;-76
2023/03/08 02:01:00;;;;;;;1.77;1.67;;;;;;;16.18;33.43;99929.09;5089282;28;20024;-74
2023/03/08 02:03:25;;;;;;;2.15;1.80;;;;;;;16.06;33.59;99911.69;5087400;28;20048;-75
2023/03/08 02:05:50;;;;;;;2.17;1.75;;;;;;;15.63;33.43;99837.94;5095134;28;20153;-74
2023/03/08 02:08:16;;;;;;;2.15;1.50;;;;;;;16.19;33.43;99903.09;5089972;28;20024;-75
2023/03/08 02:10:42;;;;;;;1.83;1.63;;;;;;;16.19;33.48;99903.94;5091081;28;20023;-74
2023/03/08 02:13:08;;;;;;;2.00;1.90;;;;;;;15.72;33.43;99824.38;5072288;28;20938;-74
2023/03/08 02:15:33;;;;;;;2.10;1.90;;;;;;;15.47;33.30;99787.97;5086117;28;20027;-75
2023/03/08 02:17:59;;;;;;;2.15;1.80;;;;;;;16.22;33.42;99913.44;5088850;28;20028;-75
2023/03/08 02:20:30;;;;;;;1.70;1.60;;;;;;;16.23;33.34;99907.94;5092895;28;20036;-73
2023/03/08 02:23:15;;;;;;;2.03;1.77;;;;;;;16.24;33.38;99890.00;5093231;28;20028;-73
2023/03/08 02:25:51;;;;;;;2.95;1.65;;;;;;;16.24;33.34;99881.94;5092563;28;20028;-74
2023/03/08 02:28:17;;;;;;;1.65;1.55;;;;;;;16.22;33.26;99871.38;5087383;28;20066;-74
2023/03/08 02:30:42;;;;;;;1.75;1.50;;;;;;;16.24;33.40;99864.00;5092130;28;20024;-74
2023/03/08 02:33:08;;;;;;;2.45;1.80;;;;;;;16.25;33.29;99862.97;5098290;28;20469;-75
2023/03/08 02:35:34;;;;;;;2.38;1.67;;;;;;;16.27;33.17;99868.19;5094062;28;20027;-74
2023/03/08 02:38:00;;;;;;;1.85;1.50;;;;;;;15.77;33.28;99783.66;5088094;28;20032;-74
2023/03/08 02:40:25;;;;;;;1.95;1.60;;;;;;;16.30;33.25;99859.75;5099713;28;20066;-75
2023/03/08 02:42:50;;;;;;;1.52;1.42;;;;;;;16.33;33.19;99858.59;5095738;28;20031;-74
2023/03/08 02:45:15;;;;;;;1.75;1.52;;;;;;;16.34;33.03;99863.75;5092121;28;20028;-74
2023/03/08 02:47:41;;;;;;;1.70;1.60;;;;;;;16.34;33.18;99866.44;5090144;28;20063;-75
2023/03/08 02:50:07;;;;;;;1.40;1.30;;;;;;;16.33;32.98;99853.22;5102765;28;20039;-74
2023/03/08 02:52:32;;;;;;;1.70;1.60;;;;;;;16.30;33.04;99851.72;5102947;28;20020;-74
2023/03/08 02:54:57;;;;;;;1.60;1.45;;;;;;;16.30;33.08;99849.03;5089765;28;20052;-73
2023/03/08 02:57:23;;;;;;;1.60;1.50;;;;;;;16.34;33.04;99852.22;5092420;28;20529;-75
2023/03/08 02:59:48;;;;;;;2.00;1.42;;;;;;;16.28;32.91;99840.34;5101733;28;20089;-74
2023/03/08 03:02:13;;;;;;;2.63;1.63;;;;;;;16.22;33.27;99835.66;5082477;28;20025;-74
2023/03/08 03:04:38;;;;;;;1.58;1.48;;;;;;;16.39;33.09;99861.38;5087379;28;20512;-75
2023/03/08 03:07:04;;;;;;;2.20;2.00;;;;;;;16.26;33.01;99834.31;5091106;28;20028;-74
2023/03/08 03:09:29;;;;;;;2.17;1.65;;;;;;;16.41;32.87;99855.84;5098666;28;20021;-74
2023/03/08 03:11:55;;;;;;;1.48;1.38;;;;;;;15.90;32.98;99769.69;5092313;28;20032;-74
2023/03/08 03:14:20;;;;;;;1.50;1.40;;;;;;;16.43;33.07;99849.28;5088001;28;20068;-74
2023/03/08 03:16:45;;;;;;;1.70;1.60;;;;;;;16.43;32.79;99846.59;5091956;28;20024;-73
2023/03/08 03:19:11;;;;;;;1.48;1.30;;;;;;;16.45;32.92;99846.44;5096338;28;20442;-74
2023/03/08 03:21:39;;;;;;;1.92;1.40;;;;;;;15.87;32.82;99751.28;5090944;28;20020;-74
2023/03/08 03:24:05;;;;;;;1.60;1.50;;;;;;;16.25;32.90;99813.88;5089928;28;20025;-75
2023/03/08 03:26:30;;;;;;;1.95;1.40;;;;;;;15.98;32.93;99769.66;5086590;28;20279;-74
2023/03/08 03:28:57;;;;;;;1.65;1.50;;;;;;;16.34;32.84;99823.53;5094017;28;20035;-74
2023/03/08 03:31:23;;;;;;;1.52;1.42;;;;;;;16.48;32.80;99844.25;5070172;28;20428;-75
2023/03/08 03:33:49;;;;;;;1.67;1.58;;;;;;;16.32;32.90;99822.06;5089798;28;20305;-72
2023/03/08 03:36:17;;;;;;;1.52;1.42;;;;;;;16.52;32.71;99846.53;5077676;28;20020;-74
2023/03/08 03:38:43;;;;;;;1.83;1.50;;;;;;;16.41;32.80;99840.59;5091928;28;20054;-73
2023/03/08 03:41:11;;;;;;;1.70;1.60;;;;;;;16.50;32.79;99860.97;5086542;28;20033;-74
2023/03/08 03:43:36;;;;;;;2.08;1.75;;;;;;;16.46;32.81;99851.63;5091079;28;20032;-74
2023/03/08 03:46:04;;;;;;;1.77;1.67;;;;;;;16.31;32.71;99820.38;5090306;28;20084;-74
2023/03/08 03:48:30;;;;;;;1.50;1.40;;;;;;;15.94;32.75;99752.25;5092048;28;20397;-73
2023/03/08 03:50:57;;;;;;;1.63;1.52;;;;;;;16.54;32.78;99857.94;5088466;28;20036;-73
2023/03/08 03:53:23;;;;;;;1.80;1.58;;;;;;;16.55;32.69;99852.41;5088710;28;20012;-74
2023/03/08 03:55:49;;;;;;;2.35;1.58;;;;;;;16.00;32.63;99760.41;5072277;28;20401;-72
2023/03/08 03:58:14;;;;;;;1.70;1.60;;;;;;;16.13;32.66;99780.44;5086981;28;20034;-74
2023/03/08 04:00:40;;;;;;;1.77;1.67;;;;;;;16.48;32.83;99830.81;5091130;28;20035;-74
2023/03/08 04:03:07;;;;;;;1.67;1.50;;;;;;;16.08;32.69;99770.25;5092663;28;20756;-75
2023/03/08 04:05:33;;;;;;;1.70;1.55;;;;;;;16.56;32.71;99832.59;5091476;28;20051;-75
2023/03/08 04:07:58;;;;;;;2.85;1.77;;;;;;;16.58;32.70;99832.44;5088266;28;20036;-75
2023/03/08 04:10:23;;;;;;;3.15;1.98;;;;;;;16.48;32.73;99817.41;5093147;28;20047;-74
2023/03/08 04:12:50;;;;;;;1.70;1.60;;;;;;;15.98;32.55;99726.75;5093411;28;20545;-73
2023/03/08 04:15:15;;;;;;;1.70;1.50;;;;;;;16.42;32.63;99791.28;5092262;28;20021;-75
2023/03/08 04:17:41;;;;;;;1.92;1.70;;;;;;;16.57;32.74;99810.13;5091136;28;20084;-74
2023/03/08 04:20:07;;;;;;;2.28;1.90;;;;;;;16.55;32.82;99800.59;5092487;28;20549;-74
2023/03/08 04:22:32;;;;;;;2.35;1.85;;;;;;;16.56;32.64;99803.06;5087202;28;20106;-74
2023/03/08 04:24:57;;;;;;;1.88;1.77;;;;;;;16.62;32.33;99823.00;5087334;28;20021;-74
2023/03/08 04:27:23;;;;;;;2.67;2.10;;;;;;;16.62;32.57;99805.06;5092889;28;20465;-74
2023/03/08 04:29:48;;;;;;;2.53;2.00;;;;;;;16.64;32.60;99807.53;5091715;28;20024;-73
2023/03/08 04:32:14;;;;;;;2.10;1.90;;;;;;;16.61;32.52;99797.16;5096648;28;20047;-73
2023/03/08 04:34:39;;;;;;;2.47;2.00;;;;;;;16.64;32.74;99799.50;5077568;28;20017;-74
2023/03/08 04:37:04;;;;;;;2.45;2.15;;;;;;;16.64;32.52;99799.50;5095585;28;20064;-74
2023/03/08 04:39:30;;;;;;;2.25;2.05;;;;;;;16.18;32.63;99727.09;5091365;28;20028;-74
2023/03/08 04:41:55;;;;;;;2.63;2.17;;;;;;;16.45;32.57;99769.47;5086404;28;20489;-74
2023/03/08 04:44:20;;;;;;;2.70;2.45;;;;;;;16.18;32.60;99730.63;5094062;28;20020;-74
2023/03/08 04:46:45;;;;;;;2.20;2.00;;;;;;;16.65;32.53;99793.97;5096912;28;20032;-73
2023/03/08 04:49:11;;;;;;;2.20;2.00;;;;;;;16.17;32.47;99707.47;5091185;28;20028;-74
2023/03/08 04:51:36;;;;;;;2.30;2.10;;;;;;;16.68;32.35;99780.16;5086139;28;20059;-75
2023/03/08 04:54:03;;;;;;;3.33;2.17;;;;;;;16.60;32.52;99772.19;5100785;28;20032;-74
2023/03/08 04:56:29;;;;;;;2.97;2.67;;;;;;;16.66;32.49;99776.84;5095498;28;20028;-74
2023/03/08 04:58:54;;;;;;;2.90;2.60;;;;;;;16.32;32.41;99715.59;5088724;28;20771;-74
2023/03/08 05:01:21;;;;;;;2.60;2.40;;;;;;;16.69;32.46;99772.94;5087741;28;20048;-75
2023/03/08 05:03:48;;;;;;;3.22;2.85;;;;;;;16.68;32.32;99782.84;5100012;28;20047;-73
2023/03/08 05:06:14;;;;;;;3.05;2.30;;;;;;;16.14;32.38;99675.69;5091580;28;20110;-73
2023/03/08 05:08:39;;;;;;;2.92;2.40;;;;;;;16.18;32.49;99673.47;5090496;28;20641;-74
2023/03/08 05:11:05;;;;;;;2.42;2.22;;;;;;;16.40;32.35;99706.66;5091636;28;20080;-75
2023/03/08 05:13:33;;;;;;;3.08;2.80;;;;;;;16.68;32.39;99747.97;5102090;28;20046;-74
2023/03/08 05:15:58;;;;;;;3.13;2.83;;;;;;;16.70;32.36;99739.75;5103297;28;20052;-74
2023/03/08 05:18:24;;;;;;;2.53;2.33;;;;;;;16.69;32.45;99732.69;5071760;28;20028;-75
2023/03/08 05:21:01;;;;;;;2.53;2.33;;;;;;;16.32;32.46;99675.38;5091521;28;20032;-74
2023/03/08 05:23:27;;;;;;;2.63;2.42;;;;;;;16.70;32.26;99724.47;5101808;28;20017;-74
2023/03/08 05:25:54;;;;;;;2.92;2.70;;;;;;;16.71;32.42;99727.97;5092511;28;20032;-75
2023/03/08 05:28:20;;;;;;;2.60;2.40;;;;;;;16.50;32.56;99693.81;5102873;28;20088;-74
2023/03/08 05:30:46;;;;;;;2.60;2.38;;;;;;;16.29;32.38;99666.84;5092933;28;20020;-73
2023/03/08 05:33:11;;;;;;;2.60;2.40;;;;;;;16.70;32.56;99720.97;5096106;28;20461;-75
2023/03/08 05:35:36;;;;;;;3.80;3.20;;;;;;;16.69;32.31;99720.13;5091248;28;20092;-73
2023/03/08 05:38:02;;;;;;;3.45;2.80;;;;;;;16.67;32.51;99714.09;5091034;28;20071;-72
2023/03/08 05:40:27;;;;;;;3.55;2.88;;;;;;;16.70;32.42;99720.97;5089779;28;20062;-74
2023/03/08 05:42:53;;;;;;;2.95;2.65;;;;;;;16.68;32.55;99712.25;5092369;28;20477;-74
2023/03/08 05:45:18;;;;;;;3.53;2.97;;;;;;;16.68;32.48;99709.56;5091226;28;20040;-75
2023/03/08 05:47:44;;;;;;;2.40;2.20;;;;;;;16.69;32.54;99700.47;5091598;28;20461;-73
2023/03/08 05:50:10;;;;;;;2.72;2.42;;;;;;;16.68;32.52;99691.59;5091316;28;20039;-75
2023/03/08 05:52:36;;;;;;;3.20;2.90;;;;;;;15.83;32.53;99555.13;5103672;28;20025;-74
2023/03/08 05:55:01;;;;;;;3.15;2.85;;;;;;;16.69;32.56;99674.50;5092291;28;20023;-74
2023/03/08 05:57:27;;;;;;;3.08;2.72;;;;;;;16.70;32.50;99676.16;5090901;28;20031;-73
2023/03/08 05:59:52;;;;;;;3.30;2.95;;;;;;;16.69;32.56;99674.50;5093087;28;20453;-73
2023/03/08 06:02:17;;;;;;;3.50;3.03;;;;;;;16.61;32.57;99654.94;5088678;28;20028;-74
2023/03/08 06:04:43;;;;;;;3.63;3.08;;;;;;;16.60;32.56;99666.69;5094476;28;20055;-74
2023/03/08 06:07:08;;;;;;;4.03;3.28;;;;;;;16.69;32.52;99663.75;5090742;28;20111;-75
2023/03/08 06:09:33;;;;;;;3.78;3.00;;;;;;;16.69;32.54;99665.59;5090948;28;20025;-74
2023/03/08 06:11:59;;;;;;;3.45;2.83;;;;;;;16.67;32.63;99648.84;5087992;28;20392;-74
2023/03/08 06:14:24;;;;;;;2.70;2.50;;;;;;;16.69;32.56;99646.81;5095566;28;20036;-74
2023/03/08 06:16:49;;;;;;;3.10;2.80;;;;;;;16.27;32.54;99580.34;5089584;28;20397;-73
2023/03/08 06:19:15;;;;;;;3.60;3.05;;;;;;;16.23;32.43;99572.69;5090795;28;20078;-74
2023/03/08 06:21:40;;;;;;;3.83;3.17;;;;;;;16.66;32.62;99634.59;5091771;28;20040;-74
2023/03/08 06:24:05;;;;;;;3.67;2.92;;;;;;;16.65;32.37;99632.94;5097694;28;20020;-75
2023/03/08 06:26:31;;;;;;;4.43;3.03;;;;;;;16.69;32.46;99639.59;5101780;28;20427;-74
2023/03/08 06:28:56;;;;;;;3.47;2.88;;;;;;;16.70;32.65;99635.91;5090474;28;20055;-73
2023/03/08 06:31:22;;;;;;;3.08;2.78;;;;;;;16.52;32.55;99613.94;5095499;28;20025;-74
2023/03/08 06:33:47;;;;;;;3.40;2.92;;;;;;;16.69;32.63;99636.94;5099219;28;20024;-73
2023/03/08 06:36:18;;;;;;;2.78;2.42;;;;;;;16.67;32.66;99646.16;5088669;28;20039;-74
2023/03/08 06:38:43;;;;;;;3.22;2.92;;;;;;;16.22;32.52;99551.41;5091998;28;20111;-73
2023/03/08 06:41:09;;;;;;;3.60;3.30;;;;;;;16.19;32.48;99547.25;5098110;28;20032;-74
2023/03/08 06:43:35;;;;;;;3.28;2.88;;;;;;;16.73;32.48;99632.03;5085108;28;20024;-74
2023/03/08 06:46:07;;;;;;;3.72;2.97;;;;;;;16.02;32.46;99518.94;5084578;28;20108;-74
2023/03/08 06:48:34;;;;;;;3.90;2.85;;;;;;;16.62;32.46;99611.00;5095162;28;20024;-73
2023/03/08 06:50:59;;;;;;;2.97;2.60;;;;;;;16.72;32.41;99635.69;5084842;28;20377;-74
2023/03/08 06:53:25;;;;;;;3.55;2.60;;;;;;;16.25;32.41;99567.13;5091052;28;20052;-74
2023/03/08 06:55:51;;;;;;;3.40;2.78;;;;;;;16.75;32.27;99630.00;5089292;28;20024;-74
2023/03/08 06:58:16;;;;;;;3.58;3.28;;;;;;;16.29;32.49;99565.75;5099240;28;20021;-74
2023/03/08 07:00:41;;;;;;;3.38;3.08;;;;;;;16.77;32.39;99629.81;5097052;28;20024;-73
2023/03/08 07:03:06;;;;;;;3.78;3.15;;;;;;;16.25;32.47;99545.69;5085688;28;20127;-74
2023/03/08 07:05:32;;;;;;;3.15;2.88;;;;;;;16.73;32.36;99618.59;5090687;28;20040;-75
2023/03/08 07:07:57;;;;;;;3.70;3.08;;;;;;;16.15;32.44;99526.34;5097382;28;20218;-75
2023/03/08 07:10:23;;;;;;;3.10;2.80;;;;;;;16.41;32.29;99563.44;5095012;28;20033;-75
2023/03/08 07:12:50;;;;;;;4.22;2.92;;;;;;;16.83;32.25;99629.91;5088951;28;20028;-74
2023/03/08 07:15:17;;;;;;;4.03;3.30;;;;;;;16.29;32.27;99546.97;5089504;28;20032;-74
2023/03/08 07:17:43;;;;;;;4.43;3.47;;;;;;;16.38;32.28;99570.00;5100231;28;20040;-74
2023/03/08 07:20:09;;;;;;;3.40;2.90;;;;;;;16.84;32.26;99634.25;5098679;28;20112;-74
2023/03/08 07:22:35;;;;;;;3.53;3.20;;;;;;;16.33;32.40;99553.63;5085615;28;20025;-75
2023/03/08 07:25:00;;;;;;;4.15;2.97;;;;;;;16.48;32.31;99580.44;5089454;28;20032;-75
2023/03/08 07:27:26;;;;;;;3.92;3.08;;;;;;;16.35;32.21;99548.06;5098698;28;20695;-73
2023/03/08 07:29:51;;;;;;;4.18;3.30;;;;;;;16.88;32.44;99640.91;5096466;28;20064;-73
2023/03/08 07:32:16;;;;;;;3.47;3.17;;;;;;;16.89;32.25;99641.75;5088491;28;20034;-74
2023/03/08 07:34:43;;;;;;;3.33;2.90;;;;;;;16.83;32.27;99621.88;5101254;28;20024;-73
2023/03/08 07:37:12;;;;;;;3.75;3.25;;;;;;;16.89;32.33;99633.69;5094185;28;20042;-74
2023/03/08 07:39:37;;;;;;;3.80;3.30;;;;;;;16.87;32.18;99623.16;5088430;28;20484;-74
2023/03/08 07:42:03;;;;;;;3.05;2.75;;;;;;;16.85;32.18;99619.81;5088192;28;20028;-74
2023/03/08 07:44:28;;;;;;;3.47;3.10;;;;;;;16.93;31.94;99633.13;5101631;28;20024;-75
2023/03/08 07:46:54;;;;;;;3.58;3.28;;;;;;;16.93;32.06;99625.09;5095240;28;20024;-74
2023/03/08 07:49:19;;;;;;;3.70;3.10;;;;;;;16.49;32.29;99550.78;5086458;28;20092;-74
2023/03/08 07:51:44;;;;;;;3.20;2.90;;;;;;;16.98;32.27;99625.34;5100403;28;20021;-72
2023/03/08 07:54:11;;;;;;;3.35;2.75;;;;;;;16.95;31.94;99615.00;5090625;28;20032;-74
2023/03/08 07:56:37;;;;;;;3.58;3.28;;;;;;;17.01;32.10;99617.94;5093567;28;20595;-74
2023/03/08 07:59:02;;;;;;;3.35;3.05;;;;;;;16.85;32.17;99595.66;5093319;28;20062;-74
2023/03/08 08:01:27;;;;;;;3.70;3.30;;;;;;;16.51;31.98;99526.44;5091424;28;20040;-75
2023/03/08 08:03:52;;;;;;;3.53;3.22;;;;;;;16.60;32.02;99545.94;5100550;28;20048;-75
2023/03/08 08:06:18;;;;;;;3.10;2.80;;;;;;;16.97;32.13;99602.22;5091362;28;20032;-75
2023/03/08 08:08:43;;;;;;;2.90;2.60;;;;;;;17.03;32.49;99611.34;5091199;28;20209;-74
2023/03/08 08:11:13;;;;;;;3.17;2.85;;;;;;;17.04;32.16;99606.84;5087151;28;20028;-74
2023/03/08 08:13:38;;;;;;;3.47;2.92;;;;;;;16.29;31.98;99493.34;5091361;28;20028;-75
2023/03/08 08:16:05;;;;;;;3.25;2.95;;;;;;;17.05;32.07;99608.50;5087712;28;20442;-75
2023/03/08 08:18:31;;;;;;;3.20;2.90;;;;;;;16.54;31.93;99511.81;5092236;28;20032;-75
2023/03/08 08:21:08;;;;;;;3.67;3.20;;;;;;;16.99;31.99;99576.03;5093521;28;20070;-74
2023/03/08 08:23:34;;;;;;;3.50;3.20;;;;;;;16.56;32.08;99502.56;5088866;28;20037;-73
2023/03/08 08:26:03;;;;;;;3.47;3.03;;;;;;;16.65;31.98;99516.69;5089521;28;20024;-75
2023/03/08 08:28:28;;;;;;;3.72;3.33;;;;;;;17.07;32.03;99575.06;5083696;28;20024;-75
2023/03/08 08:30:59;;;;;;;3.67;2.70;;;;;;;17.10;32.07;99574.69;5099638;28;20055;-74
2023/03/08 08:33:25;;;;;;;3.63;3.08;;;;;;;16.95;31.99;99555.94;5088893;28;20511;-74
2023/03/08 08:35:50;;;;;;;3.28;2.97;;;;;;;16.65;31.86;99514.00;5094677;28;20092;-74
2023/03/08 08:38:15;;;;;;;3.75;3.10;;;;;;;17.10;31.97;99587.28;5091267;28;20028;-75
2023/03/08 08:40:40;;;;;;;3.65;3.28;;;;;;;16.73;31.88;99504.03;5085494;28;20044;-74
2023/03/08 08:43:06;;;;;;;4.80;3.72;;;;;;;16.80;32.08;99517.53;5092536;28;20032;-74
2023/03/08 08:45:31;;;;;;;3.40;2.97;;;;;;;16.74;31.85;99500.34;5102563;28;20056;-75
2023/03/08 08:47:56;;;;;;;3.25;2.83;;;;;;;17.16;31.93;99565.03;5096892;28;20036;-75
2023/03/08 08:50:22;;;;;;;4.00;3.00;;;;;;;17.18;32.03;99565.69;5089316;28;20037;-74
2023/03/08 08:52:47;;;;;;;3.80;3.40;;;;;;;17.15;31.88;99571.44;5098279;28;20038;-73
2023/03/08 08:55:12;;;;;;;3.30;3.00;;;;;;;16.69;31.83;99500.06;5099822;28;20040;-73
2023/03/08 08:57:37;;;;;;;3.15;2.75;;;;;;;16.78;31.97;99510.69;5094717;28;20036;-73
2023/03/08 09:00:08;;;;;;;3.67;3.38;;;;;;;17.21;31.91;99576.88;5092493;28;20043;-74
2023/03/08 09:02:33;;;;;;;3.88;3.38;;;;;;;16.67;31.78;99480.59;5100454;28;20045;-75
2023/03/08 09:04:59;;;;;;;3.13;2.83;;;;;;;17.20;31.98;99561.81;5096781;28;20079;-75
2023/03/08 09:07:24;;;;;;;3.47;3.10;;;;;;;16.66;32.01;99484.31;5103978;28;20097;-75
2023/03/08 09:09:49;;;;;;;3.60;3.30;;;;;;;17.21;31.81;99571.50;5101186;28;20032;-74
2023/03/08 09:12:15;;;;;;;3.50;3.20;;;;;;;17.22;31.84;99566.97;5102728;28;20046;-74
2023/03/08 09:14:40;;;;;;;3.10;2.70;;;;;;;17.22;31.89;99559.75;5102907;28;20032;-75
2023/03/08 09:17:05;;;;;;;3.40;3.00;;;;;;;17.23;31.84;99555.19;5091667;28;20036;-74
2023/03/08 09:19:31;;;;;;;3.47;3.17;;;;;;;17.22;31.90;99550.84;5091051;28;20025;-74
2023/03/08 09:21:56;;;;;;;3.60;3.30;;;;;;;16.66;32.03;99460.16;5098959;28;20477;-74
2023/03/08 09:24:21;;;;;;;3.17;2.72;;;;;;;16.72;31.89;99472.00;5095208;28;20116;-75
2023/03/08 09:26:46;;;;;;;3.45;3.15;;;;;;;16.73;31.68;99477.19;5089751;28;20259;-74
2023/03/08 09:29:12;;;;;;;3.83;3.22;;;;;;;17.19;31.90;99549.38;5094292;28;20024;-74
2023/03/08 09:31:38;;;;;;;3.35;2.85;;;;;;;17.20;31.84;99547.50;5103864;28;20028;-74
2023/03/08 09:34:07;;;;;;;4.20;3.75;;;;;;;17.20;32.04;99544.81;5093902;28;20051;-73
2023/03/08 09:36:32;;;;;;;3.50;3.20;;;;;;;17.17;31.96;99523.75;5092359;28;20056;-74
2023/03/08 09:38:58;;;;;;;3.63;3.33;;;;;;;17.20;32.04;99532.25;5091454;28;20050;-74
2023/03/08 09:41:35;;;;;;;3.35;3.05;;;;;;;17.20;31.90;99536.75;5096318;28;20051;-75
2023/03/08 09:44:25;;;;;;;3.80;3.05;;;;;;;17.21;31.92;99536.59;5105057;28;20066;-74
2023/03/08 09:46:57;;;;;;;3.60;3.20;;;;;;;17.21;32.04;99528.53;5094979;28;20032;-75
2023/03/08 09:49:27;;;;;;;3.92;3.55;;;;;;;17.09;31.88;99503.19;5094542;28;20024;-74
2023/03/08 09:52:11;;;;;;;3.40;3.00;;;;;;;17.21;31.91;99517.78;5096617;28;20016;-74
2023/03/08 09:54:37;;;;;;;3.88;3.40;;;;;;;17.21;32.10;99519.66;5091503;28;20046;-74
2023/03/08 09:57:10;;;;;;;3.60;3.30;;;;;;;17.20;31.99;99515.28;5075218;28;20028;-74
2023/03/08 09:59:51;;;;;;;4.05;3.65;;;;;;;17.15;32.11;99494.38;5078166;28;20020;-74
2023/03/08 10:02:25;;;;;;;4.28;3.38;;;;;;;17.25;31.93;99504.81;5087714;28;20088;-74
2023/03/08 10:05:04;;;;;;;3.38;2.90;;;;;;;17.23;31.96;99496.94;5094241;28;20135;-73
2023/03/08 10:07:41;;;;;;;3.47;3.17;;;;;;;16.88;31.95;99422.66;5096445;28;20024;-74
2023/03/08 10:10:26;;;;;;;3.00;2.70;;;;;;;17.25;32.16;99486.00;5086968;28;20043;-74
2023/03/08 10:13:00;;;;;;;3.70;3.08;;;;;;;17.26;32.02;99482.28;5093046;28;20020;-73
2023/03/08 10:15:26;;;;;;;3.25;2.90;;;;;;;17.28;31.91;99476.72;5090807;28;20028;-74
2023/03/08 10:17:59;;;;;;;3.22;2.90;;;;;;;17.06;31.95;99432.94;5103405;28;20051;-73
2023/03/08 10:20:36;;;;;;;3.08;2.78;;;;;;;16.44;31.86;99341.25;5094568;28;20123;-74
2023/03/08 10:23:16;;;;;;;3.72;3.08;;;;;;;17.23;31.94;99455.81;5094862;28;20028;-73
2023/03/08 10:25:42;;;;;;;3.05;2.75;;;;;;;16.73;31.76;99367.16;5101263;28;20083;-74
2023/03/08 10:28:14;;;;;;;2.65;2.45;;;;;;;17.41;31.90;99466.91;5090078;28;20036;-73
2023/03/08 10:30:52;;;;;;;3.22;2.70;;;;;;;17.32;31.91;99449.28;5095034;28;20019;-73
2023/03/08 10:33:19;;;;;;;3.30;3.00;;;;;;;17.46;31.73;99466.38;5104526;28;20039;-74
2023/03/08 10:36:00;;;;;;;3.17;2.40;;;;;;;17.48;31.73;99458.94;5088245;28;20033;-73
2023/03/08 10:38:28;;;;;;;3.40;3.03;;;;;;;17.49;31.72;99453.34;5091783;28;20051;-74
2023/03/08 10:41:13;;;;;;;3.15;2.60;;;;;;;17.52;31.71;99454.00;5094298;28;20106;-74
2023/03/08 10:43:44;;;;;;;2.88;2.28;;;;;;;17.52;31.56;99448.63;5101342;28;20024;-73
2023/03/08 10:46:16;;;;;;;2.80;2.47;;;;;;;17.52;31.57;99460.19;5082245;28;20021;-74
2023/03/08 10:48:42;;;;;;;2.75;2.47;;;;;;;17.49;31.81;99466.78;5075045;28;20032;-74
2023/03/08 10:51:22;;;;;;;2.60;2.17;;;;;;;17.47;31.80;99459.97;5085376;28;20035;-74
2023/03/08 10:54:10;;;;;;;3.00;2.55;;;;;;;17.50;31.71;99459.56;5101150;28;20032;-73
2023/03/08 10:56:39;;;;;;;3.30;2.92;;;;;;;17.48;31.79;99458.94;5086481;28;20028;-74
2023/03/08 10:59:12;;;;;;;3.23;2.93;;;;;;;17.47;32.03;99444.66;5100788;28;20067;-74
2023/03/08 11:01:48;;;;;;;3.75;2.97;;;;;;;17.48;31.84;99446.31;5090409;28;20032;-75
2023/03/08 11:04:19;;;;;;;4.43;3.38;;;;;;;17.51;31.78;99437.03;5073483;28;20044;-74
2023/03/08 11:06:44;;;;;;;3.40;2.90;;;;;;;17.54;31.83;99433.13;5097758;28;20024;-74
2023/03/08 11:09:28;;;;;;;3.63;3.33;;;;;;;17.40;31.84;99411.53;5095008;28;20028;-73
2023/03/08 11:11:55;;;;;;;3.42;3.03;;;;;;;17.44;31.99;99426.22;5082748;28;20020;-73
2023/03/08 11:14:21;;;;;;;4.10;3.42;;;;;;;17.54;31.91;99423.19;5094132;28;20024;-74
2023/03/08 11:16:48;;;;;;;4.22;3.30;;;;;;;17.52;32.02;99417.19;5086259;28;20017;-73
2023/03/08 11:19:43;;;;;;;4.30;3.47;;;;;;;17.53;31.88;99407.28;5098058;28;20512;-74
2023/03/08 11:22:18;;;;;;;3.10;2.78;;;;;;;17.56;31.91;99415.78;5100365;28;20096;-74
2023/03/08 11:25:06;;;;;;;3.80;3.08;;;;;;;17.61;31.76;99420.56;5093536;28;20024;-73
2023/03/08 11:27:54;;;;;;;3.22;2.80;;;;;;;17.64;31.64;99407.56;5101620;28;20505;-74
2023/03/08 11:30:32;;;;;;;3.33;2.97;;;;;;;17.64;31.81;99406.75;5089542;28;20032;-73
2023/03/08 11:33:21;;;;;;;3.45;3.03;;;;;;;17.65;31.86;99403.03;5093970;28;20044;-73
2023/03/08 11:36:25;;;;;;;4.13;2.63;;;;;;;17.69;31.79;99402.44;5095600;28;20046;-72